Time;durP1;ratioP1;P1;durP2;ratioP2;P2;SDS_P1;SDS_P2;PMS_P1;PMS_P2;Temp;Humidity;BMP_temperature;BMP_pressure;BME280_temperature;BME280_humidity;BME280_pressure;Samples;Min_cycle;Max_cycle;Signal;HPM_P1;HPM_P2
2022/01/28 00:00:30;;;;;;;6.13;1.80;;;;;;;;;;5077579;28;20476;-73
2022/01/28 00:03:08;;;;;;;9.37;3.13;;;;;;;;;;5076819;28;20473;-73
2022/01/28 00:05:37;;;;;;;10.57;3.30;;;;;;;;;;5078288;28;20448;-73
2022/01/28 00:08:05;;;;;;;5.97;1.97;;;;;;;;;;5077625;28;20448;-72
2022/01/28 00:10:33;;;;;;;4.33;1.90;;;;;;;;;;5077229;28;20448;-72
2022/01/28 00:13:16;;;;;;;6.33;2.13;;;;;;;;;;5078572;28;20818;-72
2022/01/28 00:16:02;;;;;;;10.23;2.43;;;;;;;;;;5077689;28;20972;-72
2022/01/28 00:38:14;;;;;;;10.13;2.50;;;;;;;;;;5042468;28;20535;-72
2022/01/28 00:40:42;;;;;;;8.53;3.23;;;;;;;;;;5077262;28;20729;-73
2022/01/28 00:43:11;;;;;;;3.23;1.50;;;;;;;;;;5075333;28;20865;-72
2022/01/28 00:45:39;;;;;;;6.13;1.50;;;;;;;;;;5067660;28;20488;-72
2022/01/28 00:48:06;;;;;;;7.20;1.57;;;;;;;;;;5071437;28;20578;-72
2022/01/28 00:50:36;;;;;;;3.47;1.60;;;;;;;;;;5076788;28;20720;-73
2022/01/28 00:53:15;;;;;;;13.33;2.80;;;;;;;;;;5072974;28;20968;-72
2022/01/28 00:55:42;;;;;;;4.47;2.40;;;;;;;;;;5077429;28;20546;-72
2022/01/28 00:58:10;;;;;;;8.60;2.10;;;;;;;;;;5063264;28;20481;-72
2022/01/28 01:00:38;;;;;;;6.77;1.47;;;;;;;;;;5059127;28;20482;-72
2022/01/28 01:03:06;;;;;;;1.90;0.90;;;;;;;;;;5057320;28;21037;-72
2022/01/28 01:05:34;;;;;;;8.57;1.20;;;;;;;;;;5069388;28;20739;-72
2022/01/28 01:08:04;;;;;;;4.37;1.47;;;;;;;;;;5058761;28;20803;-73
2022/01/28 01:10:32;;;;;;;10.00;1.27;;;;;;;;;;5057411;28;20544;-72
2022/01/28 01:13:00;;;;;;;5.93;2.53;;;;;;;;;;5065795;28;20460;-72
2022/01/28 01:15:32;;;;;;;5.10;1.50;;;;;;;;;;5076484;28;20456;-72
2022/01/28 01:18:06;;;;;;;9.40;1.70;;;;;;;;;;5072154;28;20559;-72
2022/01/28 01:23:25;;;;;;;5.57;1.23;;;;;;;;;;5075883;28;20432;-71
2022/01/28 01:26:05;;;;;;;9.43;1.67;;;;;;;;;;5076956;28;20478;-72
2022/01/28 01:28:36;;;;;;;9.00;3.33;;;;;;;;;;5077157;28;20569;-72
2022/01/28 01:31:09;;;;;;;2.30;1.17;;;;;;;;;;5077599;28;20448;-73
2022/01/28 01:33:41;;;;;;;2.70;1.33;;;;;;;;;;5077060;28;20517;-73
2022/01/28 01:36:09;;;;;;;2.97;1.03;;;;;;;;;;5076483;28;20853;-73
2022/01/28 01:38:40;;;;;;;6.50;1.23;;;;;;;;;;5075938;28;20499;-73
2022/01/28 01:41:14;;;;;;;15.33;2.13;;;;;;;;;;5075505;28;20484;-72
2022/01/28 01:43:54;;;;;;;2.77;1.80;;;;;;;;;;5075865;28;20880;-72
2022/01/28 01:46:31;;;;;;;5.10;1.83;;;;;;;;;;5075937;28;20740;-72
2022/01/28 01:52:04;;;;;;;8.57;2.50;;;;;;;;;;5076085;28;20424;-72
2022/01/28 01:54:35;;;;;;;14.90;2.33;;;;;;;;;;5076264;28;20453;-72
2022/01/28 01:57:03;;;;;;;7.63;2.20;;;;;;;;;;5076737;28;20944;-72
2022/01/28 01:59:31;;;;;;;7.43;1.80;;;;;;;;;;5075884;28;20480;-72
2022/01/28 02:01:59;;;;;;;4.50;1.80;;;;;;;;;;5076552;28;20448;-72
2022/01/28 02:04:27;;;;;;;5.70;1.90;;;;;;;;;;5074758;28;20548;-73
2022/01/28 02:06:55;;;;;;;4.80;1.90;;;;;;;;;;5076853;28;20527;-72
2022/01/28 02:09:22;;;;;;;7.50;3.80;;;;;;;;;;5076088;28;20750;-72
2022/01/28 02:11:54;;;;;;;8.00;1.83;;;;;;;;;;5075189;28;20466;-72
2022/01/28 02:14:22;;;;;;;8.20;1.77;;;;;;;;;;5076420;28;20467;-73
2022/01/28 02:16:49;;;;;;;7.30;2.67;;;;;;;;;;5077589;28;20441;-72
2022/01/28 02:19:18;;;;;;;10.50;2.47;;;;;;;;;;5078790;28;20575;-72
2022/01/28 02:21:49;;;;;;;10.90;2.60;;;;;;;;;;5079252;28;20455;-72
2022/01/28 02:24:26;;;;;;;6.60;1.63;;;;;;;;;;5079705;28;20471;-72
2022/01/28 02:26:54;;;;;;;4.20;1.30;;;;;;;;;;5080070;28;20518;-73
2022/01/28 02:29:28;;;;;;;13.00;2.13;;;;;;;;;;5080096;28;20451;-72
2022/01/28 02:31:57;;;;;;;11.70;1.87;;;;;;;;;;5079763;28;20491;-72
2022/01/28 02:34:24;;;;;;;6.93;2.20;;;;;;;;;;5080756;28;20448;-72
2022/01/28 02:36:55;;;;;;;3.20;1.60;;;;;;;;;;5080416;28;20912;-72
2022/01/28 02:39:22;;;;;;;8.03;2.40;;;;;;;;;;5079823;28;20944;-73
2022/01/28 02:41:57;;;;;;;4.03;2.00;;;;;;;;;;5080442;28;20507;-72
2022/01/28 02:44:41;;;;;;;5.00;3.00;;;;;;;;;;5080267;28;20546;-72
2022/01/28 02:47:13;;;;;;;14.40;3.30;;;;;;;;;;5080364;28;20548;-72
2022/01/28 02:49:42;;;;;;;14.17;2.23;;;;;;;;;;5081032;28;20440;-73
2022/01/28 02:52:19;;;;;;;10.23;2.57;;;;;;;;;;5079814;28;20475;-73
2022/01/28 02:54:49;;;;;;;6.83;1.67;;;;;;;;;;5080215;28;20853;-73
2022/01/28 02:57:23;;;;;;;11.73;2.57;;;;;;;;;;5079955;28;20499;-72
2022/01/28 02:59:51;;;;;;;11.20;2.70;;;;;;;;;;5078399;28;20488;-72
2022/01/28 03:02:19;;;;;;;17.90;2.90;;;;;;;;;;5080065;28;20525;-73
2022/01/28 03:05:09;;;;;;;8.00;1.20;;;;;;;;;;5079553;28;20452;-73
2022/01/28 03:07:38;;;;;;;11.00;3.47;;;;;;;;;;5079585;28;20873;-73
2022/01/28 03:13:13;;;;;;;7.57;1.90;;;;;;;;;;5079772;28;20423;-73
2022/01/28 03:15:42;;;;;;;8.10;3.60;;;;;;;;;;5079744;28;20459;-72
2022/01/28 03:18:13;;;;;;;10.87;2.23;;;;;;;;;;5079488;28;20841;-73
2022/01/28 03:20:44;;;;;;;11.83;2.83;;;;;;;;;;5079736;28;20544;-72
2022/01/28 03:23:13;;;;;;;12.13;3.50;;;;;;;;;;5078891;28;20806;-72
2022/01/28 03:25:43;;;;;;;4.17;1.40;;;;;;;;;;5078933;28;20544;-72
2022/01/28 03:28:11;;;;;;;11.00;3.20;;;;;;;;;;5078215;28;20460;-72
2022/01/28 03:30:39;;;;;;;5.87;2.57;;;;;;;;;;5078514;28;20535;-72
2022/01/28 03:33:07;;;;;;;10.93;2.23;;;;;;;;;;5077879;28;20731;-73
2022/01/28 03:35:36;;;;;;;9.50;3.00;;;;;;;;;;5078359;28;20464;-73
2022/01/28 03:38:06;;;;;;;7.10;1.70;;;;;;;;;;5078987;28;20697;-73
2022/01/28 03:40:37;;;;;;;7.53;1.93;;;;;;;;;;5078405;28;20496;-73
2022/01/28 03:43:04;;;;;;;6.70;2.47;;;;;;;;;;5078399;28;20828;-73
2022/01/28 03:45:35;;;;;;;7.60;2.80;;;;;;;;;;5077782;28;20468;-73
2022/01/28 03:48:03;;;;;;;6.00;2.70;;;;;;;;;;5078570;28;20771;-72
2022/01/28 03:50:33;;;;;;;14.10;3.13;;;;;;;;;;5079051;28;20459;-73
2022/01/28 03:53:02;;;;;;;13.37;3.10;;;;;;;;;;5078396;28;20795;-72
2022/01/28 03:55:29;;;;;;;13.83;4.03;;;;;;;;;;5078862;28;20470;-72
2022/01/28 03:57:58;;;;;;;16.67;3.40;;;;;;;;;;5078428;28;20456;-72
2022/01/28 04:00:28;;;;;;;8.00;1.57;;;;;;;;;;5078313;28;20492;-73
2022/01/28 04:03:06;;;;;;;10.43;2.40;;;;;;;;;;5079326;28;20826;-74
2022/01/28 04:13:59;;;;;;;5.43;1.70;;;;;;;;;;5077360;28;20444;-72
2022/01/28 04:17:18;;;;;;;10.00;1.80;;;;;;;;;;5078286;28;20444;-72
2022/01/28 04:22:06;;;;;;;11.63;2.70;;;;;;;;;;5064231;28;20425;-72
2022/01/28 04:24:34;;;;;;;2.90;1.53;;;;;;;;;;5078723;28;20436;-72
2022/01/28 04:27:02;;;;;;;7.70;2.90;;;;;;;;;;5078746;28;20872;-72
2022/01/28 04:29:31;;;;;;;3.87;0.90;;;;;;;;;;5078756;28;20870;-72
2022/01/28 04:32:00;;;;;;;10.33;3.40;;;;;;;;;;5078448;28;20458;-72
2022/01/28 04:34:31;;;;;;;10.10;1.60;;;;;;;;;;5079006;28;20441;-72
2022/01/28 04:37:07;;;;;;;6.53;2.13;;;;;;;;;;5078443;28;20445;-72
2022/01/28 04:39:42;;;;;;;17.00;4.00;;;;;;;;;;5078733;28;20523;-72
2022/01/28 04:42:18;;;;;;;5.83;2.00;;;;;;;;;;5079482;28;20448;-72
2022/01/28 04:44:59;;;;;;;11.07;2.80;;;;;;;;;;5079263;28;20857;-72
2022/01/28 04:47:34;;;;;;;7.40;1.40;;;;;;;;;;5078274;28;20555;-72
2022/01/28 04:50:10;;;;;;;7.40;3.13;;;;;;;;;;5079057;28;20482;-72
2022/01/28 04:53:03;;;;;;;8.07;1.50;;;;;;;;;;5078506;28;20448;-72
2022/01/28 04:55:51;;;;;;;13.47;2.13;;;;;;;;;;5078839;28;20884;-72
2022/01/28 04:58:35;;;;;;;9.37;2.43;;;;;;;;;;5078911;28;20448;-73
2022/01/28 05:01:27;;;;;;;13.50;4.50;;;;;;;;;;5078693;28;20492;-73
2022/01/28 05:04:08;;;;;;;8.03;2.73;;;;;;;;;;5078819;28;20459;-73
2022/01/28 05:10:12;;;;;;;3.73;2.03;;;;;;;;;;5077785;28;20423;-73
2022/01/28 05:13:05;;;;;;;10.30;2.53;;;;;;;;;;5078500;28;20469;-73
2022/01/28 05:26:56;;;;;;;11.77;3.50;;;;;;;;;;5015597;28;20441;-73
2022/01/28 05:29:24;;;;;;;9.83;1.73;;;;;;;;;;5015599;28;20451;-72
2022/01/28 05:31:52;;;;;;;30.77;7.17;;;;;;;;;;5046257;28;20456;-73
2022/01/28 05:34:25;;;;;;;8.60;2.67;;;;;;;;;;5075897;28;20898;-72
2022/01/28 05:36:53;;;;;;;6.43;1.40;;;;;;;;;;5076422;28;20920;-73
2022/01/28 05:39:21;;;;;;;15.70;3.83;;;;;;;;;;5077689;28;20488;-72
2022/01/28 05:41:48;;;;;;;8.07;1.90;;;;;;;;;;5076634;28;20460;-73
2022/01/28 05:44:18;;;;;;;3.83;1.57;;;;;;;;;;5077230;28;20748;-73
2022/01/28 05:46:48;;;;;;;10.80;2.93;;;;;;;;;;5075183;28;20455;-73
2022/01/28 05:49:16;;;;;;;14.07;2.40;;;;;;;;;;5075935;28;20464;-73
2022/01/28 05:51:45;;;;;;;11.50;1.93;;;;;;;;;;5076997;28;20806;-73
2022/01/28 05:54:13;;;;;;;58.23;4.80;;;;;;;;;;5077103;28;20936;-73
2022/01/28 05:56:41;;;;;;;19.17;2.07;;;;;;;;;;5076781;28;20503;-73
2022/01/28 05:59:08;;;;;;;14.83;5.10;;;;;;;;;;5076394;28;20837;-72
2022/01/28 06:01:36;;;;;;;5.53;2.03;;;;;;;;;;5075989;28;20455;-73
2022/01/28 06:04:04;;;;;;;15.20;3.50;;;;;;;;;;5075777;28;20484;-73
2022/01/28 06:06:33;;;;;;;7.50;2.03;;;;;;;;;;5075095;28;20454;-73
2022/01/28 06:09:04;;;;;;;15.07;3.70;;;;;;;;;;5071007;28;20453;-71
2022/01/28 06:11:40;;;;;;;5.87;2.20;;;;;;;;;;5053832;28;20532;-73
2022/01/28 06:14:08;;;;;;;4.93;3.17;;;;;;;;;;5055367;28;20458;-73
2022/01/28 06:16:35;;;;;;;6.17;1.80;;;;;;;;;;5053868;28;20528;-73
2022/01/28 06:19:03;;;;;;;6.23;1.80;;;;;;;;;;5055864;28;20445;-73
2022/01/28 06:21:39;;;;;;;12.00;3.67;;;;;;;;;;5062741;28;20504;-73
2022/01/28 06:24:08;;;;;;;7.33;2.90;;;;;;;;;;5075862;28;20452;-73
2022/01/28 06:26:36;;;;;;;2.27;1.20;;;;;;;;;;5074734;28;20497;-73
2022/01/28 06:29:04;;;;;;;7.43;2.80;;;;;;;;;;5074538;28;20444;-73
2022/01/28 06:31:32;;;;;;;8.13;1.97;;;;;;;;;;5073583;28;21031;-73
2022/01/28 06:33:59;;;;;;;9.03;1.60;;;;;;;;;;5073110;28;21075;-73
2022/01/28 06:36:27;;;;;;;10.80;3.20;;;;;;;;;;5072177;28;20517;-73
2022/01/28 06:38:55;;;;;;;8.10;2.43;;;;;;;;;;5073608;28;20448;-73
2022/01/28 06:41:24;;;;;;;14.63;3.10;;;;;;;;;;5073489;28;20488;-73
2022/01/28 06:43:53;;;;;;;8.20;2.30;;;;;;;;;;5073762;28;20525;-73
2022/01/28 06:46:21;;;;;;;8.53;1.90;;;;;;;;;;5072522;28;20457;-73
2022/01/28 06:48:49;;;;;;;17.63;2.57;;;;;;;;;;5074567;28;21008;-73
2022/01/28 06:51:19;;;;;;;6.30;1.70;;;;;;;;;;5076006;28;20555;-72
2022/01/28 06:53:47;;;;;;;9.43;2.77;;;;;;;;;;5074427;28;20528;-72
2022/01/28 06:56:15;;;;;;;6.23;2.07;;;;;;;;;;5073368;28;20496;-72
2022/01/28 06:58:44;;;;;;;11.80;2.57;;;;;;;;;;5072464;28;20687;-73
2022/01/28 07:01:12;;;;;;;9.57;2.17;;;;;;;;;;5073413;28;20488;-73
2022/01/28 07:03:40;;;;;;;8.47;3.07;;;;;;;;;;5076154;28;20460;-72
2022/01/28 07:06:08;;;;;;;6.93;2.73;;;;;;;;;;5076244;28;20464;-73
2022/01/28 07:08:42;;;;;;;9.77;2.30;;;;;;;;;;5077916;28;20445;-72
2022/01/28 07:11:09;;;;;;;6.70;2.20;;;;;;;;;;5076594;28;20910;-72
2022/01/28 07:13:37;;;;;;;16.17;3.30;;;;;;;;;;5077918;28;20451;-72
2022/01/28 07:16:06;;;;;;;11.50;3.00;;;;;;;;;;5080232;28;20550;-72
2022/01/28 07:18:36;;;;;;;6.53;2.80;;;;;;;;;;5067005;28;20514;-72
2022/01/28 07:21:04;;;;;;;5.97;1.63;;;;;;;;;;5076221;28;20484;-73
2022/01/28 07:23:32;;;;;;;7.73;2.20;;;;;;;;;;5080189;28;20619;-72
2022/01/28 07:26:00;;;;;;;6.07;2.30;;;;;;;;;;5079496;28;20457;-73
2022/01/28 07:28:28;;;;;;;12.03;4.73;;;;;;;;;;5079261;28;20543;-73
2022/01/28 07:30:55;;;;;;;10.03;2.43;;;;;;;;;;5079581;28;20869;-73
2022/01/28 07:33:24;;;;;;;10.30;4.53;;;;;;;;;;5079236;28;20464;-73
2022/01/28 07:35:52;;;;;;;7.70;4.47;;;;;;;;;;5078390;28;20467;-73
2022/01/28 07:38:24;;;;;;;9.60;2.50;;;;;;;;;;5079608;28;20449;-73
2022/01/28 07:40:57;;;;;;;14.00;3.43;;;;;;;;;;5078464;28;20795;-73
2022/01/28 07:43:28;;;;;;;7.67;2.73;;;;;;;;;;5078658;28;20464;-72
2022/01/28 07:45:55;;;;;;;4.03;2.27;;;;;;;;;;5078018;28;20456;-73
2022/01/28 07:48:28;;;;;;;4.57;1.43;;;;;;;;;;5078090;28;20496;-73
2022/01/28 07:50:59;;;;;;;17.00;2.73;;;;;;;;;;5069730;28;20457;-72
2022/01/28 07:53:28;;;;;;;10.10;3.27;;;;;;;;;;5066304;28;20518;-73
2022/01/28 07:55:56;;;;;;;9.10;3.03;;;;;;;;;;5067195;28;20497;-73
2022/01/28 07:58:27;;;;;;;3.30;1.90;;;;;;;;;;5066756;28;20468;-73
2022/01/28 08:00:58;;;;;;;6.50;2.87;;;;;;;;;;5067386;28;20489;-73
2022/01/28 08:03:27;;;;;;;3.80;1.97;;;;;;;;;;5076031;28;20730;-72
2022/01/28 08:06:02;;;;;;;10.17;2.40;;;;;;;;;;5076673;28;20452;-73
2022/01/28 08:08:30;;;;;;;5.57;2.53;;;;;;;;;;5076527;28;20475;-73
2022/01/28 08:10:59;;;;;;;8.10;2.10;;;;;;;;;;5077583;28;21056;-73
2022/01/28 08:13:28;;;;;;;2.97;1.80;;;;;;;;;;5077631;28;20441;-73
2022/01/28 08:15:59;;;;;;;11.13;3.50;;;;;;;;;;5058654;28;20457;-73
2022/01/28 08:18:33;;;;;;;12.23;4.40;;;;;;;;;;5063428;28;20517;-74
2022/01/28 08:21:05;;;;;;;11.20;3.00;;;;;;;;;;5062795;28;20774;-73
2022/01/28 08:23:39;;;;;;;13.27;3.90;;;;;;;;;;5075930;28;20476;-73
2022/01/28 08:26:11;;;;;;;14.90;3.40;;;;;;;;;;5073479;28;20467;-74
2022/01/28 08:28:43;;;;;;;12.70;2.83;;;;;;;;;;5073194;28;20758;-74
2022/01/28 08:31:18;;;;;;;13.90;2.23;;;;;;;;;;5077980;28;20984;-73
2022/01/28 08:36:53;;;;;;;13.03;4.40;;;;;;;;;;5077986;28;20530;-73
2022/01/28 08:39:22;;;;;;;13.60;2.00;;;;;;;;;;5076235;28;20444;-73
2022/01/28 08:41:50;;;;;;;13.93;4.13;;;;;;;;;;5076706;28;20526;-73
2022/01/28 08:44:18;;;;;;;13.03;3.83;;;;;;;;;;5075975;28;20449;-73
2022/01/28 08:46:49;;;;;;;21.30;4.23;;;;;;;;;;5077457;28;20527;-73
2022/01/28 08:49:18;;;;;;;12.97;2.47;;;;;;;;;;5064829;28;20532;-73
2022/01/28 08:51:59;;;;;;;16.10;3.47;;;;;;;;;;5059285;28;20576;-73
2022/01/28 08:54:27;;;;;;;10.07;2.83;;;;;;;;;;5077515;28;20506;-74
2022/01/28 08:56:56;;;;;;;7.20;2.60;;;;;;;;;;5075873;28;20492;-74
2022/01/28 08:59:29;;;;;;;9.90;3.50;;;;;;;;;;5069557;28;20737;-74
2022/01/28 09:01:58;;;;;;;9.00;3.30;;;;;;;;;;5077115;28;20499;-73
2022/01/28 09:04:29;;;;;;;10.37;1.77;;;;;;;;;;5063923;28;20505;-73
2022/01/28 09:06:58;;;;;;;15.57;3.60;;;;;;;;;;5065345;28;20525;-73
2022/01/28 09:09:26;;;;;;;7.20;2.70;;;;;;;;;;5076294;28;20532;-73
2022/01/28 09:12:06;;;;;;;6.93;2.70;;;;;;;;;;5074480;28;20449;-73
2022/01/28 09:14:35;;;;;;;13.43;4.27;;;;;;;;;;5075599;28;20585;-72
2022/01/28 09:17:03;;;;;;;13.23;2.70;;;;;;;;;;5074194;28;20544;-74
2022/01/28 09:19:32;;;;;;;31.00;4.37;;;;;;;;;;5073434;28;20448;-73
2022/01/28 09:22:00;;;;;;;12.87;2.70;;;;;;;;;;5075026;28;20510;-73
2022/01/28 09:24:28;;;;;;;14.77;2.60;;;;;;;;;;5075915;28;20815;-73
2022/01/28 09:26:55;;;;;;;24.83;5.47;;;;;;;;;;5074751;28;20449;-73
2022/01/28 09:29:25;;;;;;;21.13;5.93;;;;;;;;;;5074968;28;20461;-74
2022/01/28 09:31:53;;;;;;;5.07;2.33;;;;;;;;;;5076883;28;20514;-73
2022/01/28 09:34:27;;;;;;;18.50;4.27;;;;;;;;;;5070424;28;20559;-72
2022/01/28 09:37:03;;;;;;;6.63;2.93;;;;;;;;;;5055948;28;20481;-74
2022/01/28 09:39:42;;;;;;;13.37;4.57;;;;;;;;;;5068733;28;20464;-73
2022/01/28 09:42:25;;;;;;;17.60;6.57;;;;;;;;;;5071021;28;20480;-72
2022/01/28 09:44:59;;;;;;;13.17;2.60;;;;;;;;;;5054944;28;20531;-73
2022/01/28 09:47:27;;;;;;;12.20;3.40;;;;;;;;;;5081847;28;20539;-73
2022/01/28 09:49:57;;;;;;;13.67;5.17;;;;;;;;;;5093101;28;20448;-72
2022/01/28 09:52:27;;;;;;;18.67;6.50;;;;;;;;;;5093325;28;20452;-73
2022/01/28 09:54:57;;;;;;;7.43;3.30;;;;;;;;;;5095197;28;20527;-72
2022/01/28 09:57:31;;;;;;;14.00;4.33;;;;;;;;;;5089329;28;20510;-73
2022/01/28 10:00:20;;;;;;;;;;;;;;;;;;;;;
2022/01/28 10:05:58;;;;;;;14.77;3.70;;;;;;;;;;5048947;28;20449;-74
2022/01/28 10:08:52;;;;;;;13.70;4.23;;;;;;;;;;5075254;28;20463;-73
2022/01/28 10:11:21;;;;;;;9.60;3.80;;;;;;;;;;5067507;28;20457;-72
2022/01/28 10:13:51;;;;;;;11.00;4.70;;;;;;;;;;5074343;28;20452;-72
2022/01/28 10:16:19;;;;;;;13.73;3.03;;;;;;;;;;5072495;28;20452;-72
2022/01/28 10:18:52;;;;;;;12.30;4.17;;;;;;;;;;5057425;28;20464;-71
2022/01/28 10:21:27;;;;;;;15.40;3.37;;;;;;;;;;5053808;28;20505;-73
2022/01/28 10:24:14;;;;;;;9.53;3.70;;;;;;;;;;5070765;28;20453;-72
2022/01/28 10:26:50;;;;;;;11.33;3.03;;;;;;;;;;5063688;28;20461;-72
2022/01/28 10:29:30;;;;;;;7.43;3.33;;;;;;;;;;5066609;28;20476;-73
2022/01/28 10:32:02;;;;;;;8.50;3.50;;;;;;;;;;5054191;28;20544;-72
2022/01/28 10:34:34;;;;;;;11.70;2.80;;;;;;;;;;5053717;28;20506;-72
2022/01/28 10:37:20;;;;;;;11.67;4.43;;;;;;;;;;5063383;28;20535;-73
2022/01/28 10:40:03;;;;;;;20.13;4.37;;;;;;;;;;5077962;28;20472;-73
2022/01/28 10:42:39;;;;;;;15.90;2.53;;;;;;;;;;5078320;28;20520;-72
2022/01/28 10:45:12;;;;;;;11.57;4.70;;;;;;;;;;5068926;28;21129;-73
2022/01/28 10:47:48;;;;;;;13.43;3.50;;;;;;;;;;5056968;28;20472;-73
2022/01/28 10:50:23;;;;;;;15.83;4.33;;;;;;;;;;5061510;28;20558;-72
2022/01/28 10:52:58;;;;;;;16.60;3.53;;;;;;;;;;5076969;28;20448;-72
2022/01/28 10:55:29;;;;;;;7.70;3.40;;;;;;;;;;5074562;28;20440;-74
2022/01/28 10:58:01;;;;;;;11.93;3.53;;;;;;;;;;5077112;28;20484;-72
2022/01/28 11:00:38;;;;;;;14.97;4.30;;;;;;;;;;5075610;28;20523;-73
2022/01/28 11:03:29;;;;;;;;;;;;;;;;;;;;;
2022/01/28 11:06:02;;;;;;;12.23;3.37;;;;;;;;;;5056922;28;20440;-73
2022/01/28 11:08:35;;;;;;;7.30;2.80;;;;;;;;;;5075477;28;20543;-72
2022/01/28 11:14:11;;;;;;;7.00;3.10;;;;;;;;;;5076477;28;20745;-72
2022/01/28 11:19:52;;;;;;;9.73;4.50;;;;;;;;;;5039445;28;20452;-74
2022/01/28 11:22:38;;;;;;;14.47;5.50;;;;;;;;;;5075477;28;20551;-73
2022/01/28 11:25:25;;;;;;;13.47;4.40;;;;;;;;;;5057540;28;20481;-74
2022/01/28 11:27:53;;;;;;;7.00;2.60;;;;;;;;;;5056266;28;20472;-73
2022/01/28 11:30:34;;;;;;;12.90;4.43;;;;;;;;;;5055554;28;20527;-73
2022/01/28 11:33:02;;;;;;;10.90;3.70;;;;;;;;;;5049927;28;20468;-73
2022/01/28 11:35:31;;;;;;;9.27;3.47;;;;;;;;;;5056669;28;20904;-73
2022/01/28 11:38:07;;;;;;;19.80;5.53;;;;;;;;;;5058984;28;20465;-73
2022/01/28 11:40:54;;;;;;;5.77;2.00;;;;;;;;;;5065454;28;20495;-72
2022/01/28 11:43:23;;;;;;;7.37;3.20;;;;;;;;;;5078713;28;20456;-72
2022/01/28 11:46:38;;;;;;;6.00;3.70;;;;;;;;;;5081473;28;20562;-73
2022/01/28 11:49:30;;;;;;;11.00;2.83;;;;;;;;;;5080684;28;20693;-74
2022/01/28 11:52:33;;;;;;;14.20;3.60;;;;;;;;;;5076410;28;20744;-74
2022/01/28 11:55:17;;;;;;;6.83;1.83;;;;;;;;;;5065304;28;20454;-72
2022/01/28 11:58:05;;;;;;;12.77;2.60;;;;;;;;;;5047345;28;20464;-72
2022/01/28 12:00:34;;;;;;;8.53;3.33;;;;;;;;;;5064859;28;20445;-72
2022/01/28 12:03:20;;;;;;;20.83;3.73;;;;;;;;;;5068621;28;20520;-74
2022/01/28 12:11:53;;;;;;;9.43;1.83;;;;;;;;;;5065207;28;20457;-73
2022/01/28 12:14:48;;;;;;;4.13;2.50;;;;;;;;;;5063555;28;20449;-73
2022/01/28 12:17:44;;;;;;;10.83;4.80;;;;;;;;;;5068646;28;20932;-74
2022/01/28 12:20:24;;;;;;;13.23;2.73;;;;;;;;;;5049892;28;20866;-73
2022/01/28 12:23:22;;;;;;;8.20;3.10;;;;;;;;;;4982136;27;5478093;-73
2022/01/28 12:25:59;;;;;;;6.17;3.43;;;;;;;;;;5153132;27;20191;-73
2022/01/28 12:28:43;;;;;;;5.33;2.80;;;;;;;;;;5154182;27;20440;-73
2022/01/28 12:31:14;;;;;;;22.23;4.37;;;;;;;;;;5151938;27;20513;-73
2022/01/28 12:33:44;;;;;;;11.67;5.40;;;;;;;;;;5152535;27;20445;-72
2022/01/28 12:36:19;;;;;;;5.63;3.20;;;;;;;;;;5152529;27;20783;-73
2022/01/28 12:38:59;;;;;;;16.50;4.53;;;;;;;;;;5152161;27;20453;-73
2022/01/28 12:41:40;;;;;;;15.97;3.60;;;;;;;;;;5152055;27;20476;-73
2022/01/28 12:44:08;;;;;;;13.17;3.63;;;;;;;;;;5152276;27;20906;-73
2022/01/28 12:46:39;;;;;;;11.57;3.67;;;;;;;;;;5152673;27;20480;-73
2022/01/28 12:49:10;;;;;;;14.43;3.00;;;;;;;;;;5151605;27;20496;-72
2022/01/28 12:51:42;;;;;;;10.07;3.17;;;;;;;;;;5151584;27;20880;-74
2022/01/28 12:54:18;;;;;;;10.40;2.80;;;;;;;;;;5151644;27;20940;-73
2022/01/28 12:56:48;;;;;;;8.90;3.63;;;;;;;;;;5148162;27;20438;-72
2022/01/28 12:59:18;;;;;;;9.07;3.83;;;;;;;;;;5151905;27;20541;-72
2022/01/28 13:01:52;;;;;;;14.30;3.67;;;;;;;;;;5151033;27;20487;-72
2022/01/28 13:04:36;;;;;;;12.30;3.73;;;;;;;;;;5130769;28;20780;-72
2022/01/28 13:09:49;;;;;;;15.90;4.00;;;;;;;;;;5108855;27;20421;-72
2022/01/28 13:12:23;;;;;;;13.10;4.97;;;;;;;;;;5152121;27;20806;-72
2022/01/28 13:17:59;;;;;;;10.27;3.17;;;;;;;;;;5141353;27;20472;-72
2022/01/28 13:20:34;;;;;;;16.40;3.80;;;;;;;;;;5150237;27;20575;-72
2022/01/28 13:23:19;;;;;;;14.30;3.00;;;;;;;;;;5152601;27;20934;-74
2022/01/28 13:26:19;;;;;;;15.33;4.93;;;;;;;;;;5151386;27;20453;-73
2022/01/28 13:31:50;;;;;;;16.37;5.37;;;;;;;;;;5148344;27;20848;-72
2022/01/28 13:34:20;;;;;;;8.30;3.63;;;;;;;;;;5139530;27;20872;-72
2022/01/28 13:36:49;;;;;;;5.17;2.73;;;;;;;;;;5151238;27;20837;-71
2022/01/28 13:39:18;;;;;;;9.03;3.27;;;;;;;;;;5150457;27;20552;-74
2022/01/28 13:41:50;;;;;;;11.67;3.87;;;;;;;;;;5138123;27;20481;-73
2022/01/28 13:44:37;;;;;;;;;;;;;;;;;;;;;
2022/01/28 13:49:58;;;;;;;12.93;3.40;;;;;;;;;;5139119;27;20442;-72
2022/01/28 13:52:42;;;;;;;9.27;3.20;;;;;;;;;;5140461;27;20461;-72
2022/01/28 13:58:42;;;;;;;21.13;4.73;;;;;;;;;;5113434;27;20449;-72
2022/01/28 14:01:16;;;;;;;6.97;3.87;;;;;;;;;;5141589;27;20481;-72
2022/01/28 14:03:58;;;;;;;10.63;3.93;;;;;;;;;;5140698;27;20541;-72
2022/01/28 14:06:31;;;;;;;5.20;2.80;;;;;;;;;;5139512;27;20505;-72
2022/01/28 14:09:25;;;;;;;24.03;4.77;;;;;;;;;;5140936;27;20450;-72
2022/01/28 14:12:13;;;;;;;7.57;2.93;;;;;;;;;;5138621;27;20438;-74
2022/01/28 14:15:10;;;;;;;9.33;3.17;;;;;;;;;;5147223;27;20482;-73
2022/01/28 14:17:43;;;;;;;10.43;3.20;;;;;;;;;;5137389;27;20562;-75
2022/01/28 14:20:13;;;;;;;9.57;5.53;;;;;;;;;;5137143;27;20446;-74
2022/01/28 14:22:40;;;;;;;10.50;4.00;;;;;;;;;;5135930;27;20485;-74
2022/01/28 14:25:25;;;;;;;12.83;2.90;;;;;;;;;;5135741;27;20541;-74
2022/01/28 14:28:12;;;;;;;8.67;2.93;;;;;;;;;;5115589;27;21247;-73
2022/01/28 14:30:44;;;;;;;15.53;2.90;;;;;;;;;;5132185;27;20475;-74
2022/01/28 14:33:32;;;;;;;11.33;3.37;;;;;;;;;;5136703;27;20489;-74
2022/01/28 14:36:03;;;;;;;8.83;3.50;;;;;;;;;;5121461;27;20455;-74
2022/01/28 14:44:20;;;;;;;20.87;5.23;;;;;;;;;;5145242;27;20778;-74
2022/01/28 14:49:41;;;;;;;11.03;4.50;;;;;;;;;;5129273;27;20509;-74
2022/01/28 14:55:46;;;;;;;13.40;4.93;;;;;;;;;;5097645;27;20517;-74
2022/01/28 14:58:44;;;;;;;15.50;5.07;;;;;;;;;;5137390;27;20441;-75
2022/01/28 15:01:23;;;;;;;16.10;6.80;;;;;;;;;;5136878;27;20450;-74
2022/01/28 15:04:00;;;;;;;15.97;4.73;;;;;;;;;;5136787;27;20740;-74
2022/01/28 15:06:33;;;;;;;7.67;2.67;;;;;;;;;;5133988;27;20544;-75
2022/01/28 15:09:04;;;;;;;13.93;4.67;;;;;;;;;;5130503;27;20492;-74
2022/01/28 15:11:47;;;;;;;11.63;7.27;;;;;;;;;;5122973;27;20451;-75
2022/01/28 15:14:31;;;;;;;9.13;4.40;;;;;;;;;;5115175;27;20939;-75
2022/01/28 15:17:14;;;;;;;10.63;3.90;;;;;;;;;;5123941;27;20884;-74
2022/01/28 15:19:46;;;;;;;10.70;3.90;;;;;;;;;;5131393;27;20530;-74
2022/01/28 15:22:26;;;;;;;9.30;4.00;;;;;;;;;;5136602;27;20477;-74
2022/01/28 15:24:56;;;;;;;11.30;4.00;;;;;;;;;;5136752;27;20879;-74
2022/01/28 15:27:46;;;;;;;18.93;5.20;;;;;;;;;;5136919;27;20731;-74
2022/01/28 15:34:12;;;;;;;9.93;3.80;;;;;;;;;;5137991;27;20540;-73
2022/01/28 15:36:24;;;;;;;15.93;5.13;;;;;;;;;;5130501;27;20959;-75
2022/01/28 15:38:59;;;;;;;11.20;4.40;;;;;;;;;;5128060;27;20497;-72
2022/01/28 15:41:27;;;;;;;13.80;4.30;;;;;;;;;;5133071;27;20472;-73
2022/01/28 15:43:59;;;;;;;9.60;3.03;;;;;;;;;;5126947;27;20517;-73
2022/01/28 15:46:29;;;;;;;13.40;2.60;;;;;;;;;;5136108;27;20494;-73
2022/01/28 15:48:57;;;;;;;12.50;3.13;;;;;;;;;;5134918;27;20552;-73
2022/01/28 15:51:25;;;;;;;8.63;3.37;;;;;;;;;;5136646;27;20882;-74
2022/01/28 15:53:53;;;;;;;12.37;2.80;;;;;;;;;;5135440;27;20457;-74
2022/01/28 15:56:22;;;;;;;11.70;4.07;;;;;;;;;;5135606;27;20476;-73
2022/01/28 15:58:54;;;;;;;8.20;3.23;;;;;;;;;;5136891;27;21015;-74
2022/01/28 16:01:42;;;;;;;14.83;6.00;;;;;;;;;;5135409;27;20438;-74
2022/01/28 16:04:35;;;;;;;33.43;4.83;;;;;;;;;;5135185;27;20534;-74
2022/01/28 16:07:05;;;;;;;14.93;5.23;;;;;;;;;;5140794;27;20438;-73
2022/01/28 16:09:39;;;;;;;13.17;4.90;;;;;;;;;;5136508;27;20925;-74
2022/01/28 16:12:42;;;;;;;9.97;2.93;;;;;;;;;;5135491;27;20865;-74
2022/01/28 16:15:25;;;;;;;15.93;4.03;;;;;;;;;;5134900;27;20437;-74
2022/01/28 16:17:51;;;;;;;10.43;2.50;;;;;;;;;;5141348;27;20441;-74
2022/01/28 16:20:36;;;;;;;21.30;4.27;;;;;;;;;;5136856;28;20460;-74
2022/01/28 16:23:16;;;;;;;20.07;4.23;;;;;;;;;;5135860;28;20517;-73
2022/01/28 16:25:47;;;;;;;23.27;6.47;;;;;;;;;;5136235;28;20516;-73
2022/01/28 16:28:24;;;;;;;11.63;4.03;;;;;;;;;;5135703;28;20445;-73
2022/01/28 16:30:56;;;;;;;18.10;4.80;;;;;;;;;;5134349;28;21010;-72
2022/01/28 16:33:40;;;;;;;21.67;5.43;;;;;;;;;;5133712;28;20439;-73
2022/01/28 16:39:17;;;;;;;24.93;5.37;;;;;;;;;;5105333;28;20458;-74
2022/01/28 16:42:02;;;;;;;17.17;5.23;;;;;;;;;;5117746;28;20552;-73
2022/01/28 16:44:44;;;;;;;7.10;2.87;;;;;;;;;;5124727;28;20442;-74
2022/01/28 16:47:22;;;;;;;14.70;3.30;;;;;;;;;;5134684;28;20487;-73
2022/01/28 16:49:55;;;;;;;18.73;4.20;;;;;;;;;;5135096;28;20442;-73
2022/01/28 16:55:59;;;;;;;19.30;3.67;;;;;;;;;;5118692;28;20468;-75
2022/01/28 16:58:54;;;;;;;11.47;3.90;;;;;;;;;;5132763;28;20453;-74
2022/01/28 17:01:26;;;;;;;12.30;3.47;;;;;;;;;;5133865;28;20445;-74
2022/01/28 17:03:54;;;;;;;14.73;3.80;;;;;;;;;;5134185;28;20488;-75
2022/01/28 17:06:24;;;;;;;10.90;3.77;;;;;;;;;;5134879;28;20537;-73